sensor_id;sensor_type;location;lat;lon;timestamp;temperature;humidity
71627;DHT22;59475;52.464;13.590;2022-08-19T00:01:21;20.91;93.26
71627;DHT22;59475;52.464;13.590;2022-08-19T00:03:47;20.91;93.16
71627;DHT22;59475;52.464;13.590;2022-08-19T00:06:13;20.92;93.29
71627;DHT22;59475;52.464;13.590;2022-08-19T00:08:39;20.91;93.55
71627;DHT22;59475;52.464;13.590;2022-08-19T00:11:04;20.95;93.66
71627;DHT22;59475;52.464;13.590;2022-08-19T00:13:30;20.96;94.30
71627;DHT22;59475;52.464;13.590;2022-08-19T00:15:56;20.94;94.12
71627;DHT22;59475;52.464;13.590;2022-08-19T00:18:21;20.88;94.13
71627;DHT22;59475;52.464;13.590;2022-08-19T00:20:47;20.83;94.48
71627;DHT22;59475;52.464;13.590;2022-08-19T00:23:12;20.77;94.44
71627;DHT22;59475;52.464;13.590;2022-08-19T00:25:37;20.73;94.89
71627;DHT22;59475;52.464;13.590;2022-08-19T00:28:03;20.70;94.94
71627;DHT22;59475;52.464;13.590;2022-08-19T00:30:29;20.70;94.55
71627;DHT22;59475;52.464;13.590;2022-08-19T00:32:55;20.67;94.49
71627;DHT22;59475;52.464;13.590;2022-08-19T00:35:21;20.65;94.63
71627;DHT22;59475;52.464;13.590;2022-08-19T00:37:48;20.64;94.44
71627;DHT22;59475;52.464;13.590;2022-08-19T00:40:14;20.60;94.79
71627;DHT22;59475;52.464;13.590;2022-08-19T00:42:40;20.57;94.52
71627;DHT22;59475;52.464;13.590;2022-08-19T00:45:14;20.48;94.69
71627;DHT22;59475;52.464;13.590;2022-08-19T00:47:40;20.47;94.79
71627;DHT22;59475;52.464;13.590;2022-08-19T00:50:08;20.47;94.93
71627;DHT22;59475;52.464;13.590;2022-08-19T00:52:36;20.40;94.66
71627;DHT22;59475;52.464;13.590;2022-08-19T00:55:04;20.39;94.65
71627;DHT22;59475;52.464;13.590;2022-08-19T00:57:36;20.46;95.21
71627;DHT22;59475;52.464;13.590;2022-08-19T01:00:07;20.47;94.90
71627;DHT22;59475;52.464;13.590;2022-08-19T01:02:34;20.51;94.85
71627;DHT22;59475;52.464;13.590;2022-08-19T01:05:02;20.47;94.67
71627;DHT22;59475;52.464;13.590;2022-08-19T01:07:28;20.48;94.68
71627;DHT22;59475;52.464;13.590;2022-08-19T01:09:53;20.48;94.86
71627;DHT22;59475;52.464;13.590;2022-08-19T01:12:19;20.51;95.10
71627;DHT22;59475;52.464;13.590;2022-08-19T01:14:44;20.51;95.40
71627;DHT22;59475;52.464;13.590;2022-08-19T01:17:11;20.51;95.43
71627;DHT22;59475;52.464;13.590;2022-08-19T01:19:39;20.50;95.57
71627;DHT22;59475;52.464;13.590;2022-08-19T01:24:50;20.37;95.73
71627;DHT22;59475;52.464;13.590;2022-08-19T01:27:16;20.36;95.69
71627;DHT22;59475;52.464;13.590;2022-08-19T01:29:43;20.33;96.05
71627;DHT22;59475;52.464;13.590;2022-08-19T01:32:13;20.25;95.92
71627;DHT22;59475;52.464;13.590;2022-08-19T01:34:40;20.15;96.00
71627;DHT22;59475;52.464;13.590;2022-08-19T01:37:10;20.10;95.62
71627;DHT22;59475;52.464;13.590;2022-08-19T01:39:38;20.04;95.71
71627;DHT22;59475;52.464;13.590;2022-08-19T01:42:04;19.98;95.64
71627;DHT22;59475;52.464;13.590;2022-08-19T01:44:31;19.93;95.65
71627;DHT22;59475;52.464;13.590;2022-08-19T01:46:56;19.88;95.56
71627;DHT22;59475;52.464;13.590;2022-08-19T01:49:23;19.86;95.81
71627;DHT22;59475;52.464;13.590;2022-08-19T01:51:49;19.81;95.53
71627;DHT22;59475;52.464;13.590;2022-08-19T01:54:16;19.78;95.77
71627;DHT22;59475;52.464;13.590;2022-08-19T01:56:42;19.83;95.73
71627;DHT22;59475;52.464;13.590;2022-08-19T01:59:14;19.85;95.19
71627;DHT22;59475;52.464;13.590;2022-08-19T02:01:40;19.82;95.10
71627;DHT22;59475;52.464;13.590;2022-08-19T02:04:06;19.86;95.54
71627;DHT22;59475;52.464;13.590;2022-08-19T02:06:32;19.81;94.61
71627;DHT22;59475;52.464;13.590;2022-08-19T02:08:58;19.88;94.10
71627;DHT22;59475;52.464;13.590;2022-08-19T02:11:29;19.91;94.48
71627;DHT22;59475;52.464;13.590;2022-08-19T02:13:57;19.86;94.73
71627;DHT22;59475;52.464;13.590;2022-08-19T02:16:23;19.85;94.75
71627;DHT22;59475;52.464;13.590;2022-08-19T02:18:49;19.85;95.05
71627;DHT22;59475;52.464;13.590;2022-08-19T02:21:16;19.86;94.98
71627;DHT22;59475;52.464;13.590;2022-08-19T02:23:42;19.86;95.12
71627;DHT22;59475;52.464;13.590;2022-08-19T02:26:07;19.88;95.26
71627;DHT22;59475;52.464;13.590;2022-08-19T02:28:34;19.86;95.51
71627;DHT22;59475;52.464;13.590;2022-08-19T02:31:00;19.86;95.36
71627;DHT22;59475;52.464;13.590;2022-08-19T02:33:26;19.83;95.59
71627;DHT22;59475;52.464;13.590;2022-08-19T02:35:51;19.88;95.52
71627;DHT22;59475;52.464;13.590;2022-08-19T02:38:17;19.88;95.51
71627;DHT22;59475;52.464;13.590;2022-08-19T02:40:53;19.86;95.62
71627;DHT22;59475;52.464;13.590;2022-08-19T02:43:19;19.88;95.99
71627;DHT22;59475;52.464;13.590;2022-08-19T02:45:46;19.86;95.90
71627;DHT22;59475;52.464;13.590;2022-08-19T02:48:12;19.82;96.10
71627;DHT22;59475;52.464;13.590;2022-08-19T02:50:39;19.82;96.44
71627;DHT22;59475;52.464;13.590;2022-08-19T02:53:05;19.83;96.34
71627;DHT22;59475;52.464;13.590;2022-08-19T02:55:32;19.82;96.43
71627;DHT22;59475;52.464;13.590;2022-08-19T02:57:57;19.85;96.58
71627;DHT22;59475;52.464;13.590;2022-08-19T03:00:23;19.81;96.50
71627;DHT22;59475;52.464;13.590;2022-08-19T03:02:49;19.85;96.18
71627;DHT22;59475;52.464;13.590;2022-08-19T03:05:14;19.82;96.16
71627;DHT22;59475;52.464;13.590;2022-08-19T03:07:40;19.83;96.11
71627;DHT22;59475;52.464;13.590;2022-08-19T03:10:06;19.85;96.13
71627;DHT22;59475;52.464;13.590;2022-08-19T03:12:36;19.83;96.21
71627;DHT22;59475;52.464;13.590;2022-08-19T03:15:04;19.82;96.36
71627;DHT22;59475;52.464;13.590;2022-08-19T03:17:30;19.83;96.09
71627;DHT22;59475;52.464;13.590;2022-08-19T03:19:56;19.81;96.31
71627;DHT22;59475;52.464;13.590;2022-08-19T03:22:21;19.78;96.16
71627;DHT22;59475;52.464;13.590;2022-08-19T03:24:46;19.79;96.04
71627;DHT22;59475;52.464;13.590;2022-08-19T03:27:12;19.79;96.00
71627;DHT22;59475;52.464;13.590;2022-08-19T03:29:39;19.79;96.02
71627;DHT22;59475;52.464;13.590;2022-08-19T03:32:05;19.81;95.57
71627;DHT22;59475;52.464;13.590;2022-08-19T03:34:32;19.82;95.77
71627;DHT22;59475;52.464;13.590;2022-08-19T03:37:07;19.79;95.63
71627;DHT22;59475;52.464;13.590;2022-08-19T03:39:33;19.82;95.79
71627;DHT22;59475;52.464;13.590;2022-08-19T03:41:59;19.78;95.75
71627;DHT22;59475;52.464;13.590;2022-08-19T03:44:28;19.82;95.71
71627;DHT22;59475;52.464;13.590;2022-08-19T03:46:56;19.79;95.71
71627;DHT22;59475;52.464;13.590;2022-08-19T03:49:24;19.81;95.84
71627;DHT22;59475;52.464;13.590;2022-08-19T03:51:50;19.78;95.87
71627;DHT22;59475;52.464;13.590;2022-08-19T03:54:19;19.74;96.20
71627;DHT22;59475;52.464;13.590;2022-08-19T03:56:47;19.74;96.11
71627;DHT22;59475;52.464;13.590;2022-08-19T03:59:28;19.72;96.11
71627;DHT22;59475;52.464;13.590;2022-08-19T04:01:56;19.74;95.99
71627;DHT22;59475;52.464;13.590;2022-08-19T04:04:21;19.74;95.82
71627;DHT22;59475;52.464;13.590;2022-08-19T04:06:47;19.70;96.08
71627;DHT22;59475;52.464;13.590;2022-08-19T04:09:13;19.74;95.81
71627;DHT22;59475;52.464;13.590;2022-08-19T04:11:42;19.75;95.88
71627;DHT22;59475;52.464;13.590;2022-08-19T04:14:09;19.77;95.65
71627;DHT22;59475;52.464;13.590;2022-08-19T04:16:35;19.81;95.75
71627;DHT22;59475;52.464;13.590;2022-08-19T04:19:02;19.79;95.34
71627;DHT22;59475;52.464;13.590;2022-08-19T04:21:28;19.78;95.77
71627;DHT22;59475;52.464;13.590;2022-08-19T04:23:54;19.77;95.59
71627;DHT22;59475;52.464;13.590;2022-08-19T04:26:24;19.79;95.22
71627;DHT22;59475;52.464;13.590;2022-08-19T04:28:50;19.82;95.21
71627;DHT22;59475;52.464;13.590;2022-08-19T04:31:26;19.81;95.10
71627;DHT22;59475;52.464;13.590;2022-08-19T04:33:53;19.83;95.37
71627;DHT22;59475;52.464;13.590;2022-08-19T04:36:32;19.88;94.62
71627;DHT22;59475;52.464;13.590;2022-08-19T04:39:00;19.93;94.61
71627;DHT22;59475;52.464;13.590;2022-08-19T04:41:26;19.95;94.49
71627;DHT22;59475;52.464;13.590;2022-08-19T04:44:11;20.00;94.43
71627;DHT22;59475;52.464;13.590;2022-08-19T04:46:36;20.02;94.23
71627;DHT22;59475;52.464;13.590;2022-08-19T04:49:04;20.04;94.26
71627;DHT22;59475;52.464;13.590;2022-08-19T04:51:31;20.08;94.05
71627;DHT22;59475;52.464;13.590;2022-08-19T04:53:57;20.12;94.14
71627;DHT22;59475;52.464;13.590;2022-08-19T04:56:24;20.13;93.92
71627;DHT22;59475;52.464;13.590;2022-08-19T04:58:52;20.16;93.75
71627;DHT22;59475;52.464;13.590;2022-08-19T05:01:23;20.16;93.91
71627;DHT22;59475;52.464;13.590;2022-08-19T05:03:49;20.16;93.88
71627;DHT22;59475;52.464;13.590;2022-08-19T05:06:17;20.19;93.31
71627;DHT22;59475;52.464;13.590;2022-08-19T05:08:43;20.18;93.26
71627;DHT22;59475;52.464;13.590;2022-08-19T05:11:20;20.20;93.29
71627;DHT22;59475;52.464;13.590;2022-08-19T05:13:46;20.19;93.42
71627;DHT22;59475;52.464;13.590;2022-08-19T05:16:14;20.18;93.30
71627;DHT22;59475;52.464;13.590;2022-08-19T05:18:40;20.18;93.59
71627;DHT22;59475;52.464;13.590;2022-08-19T05:21:25;20.19;93.49
71627;DHT22;59475;52.464;13.590;2022-08-19T05:24:10;20.20;93.59
71627;DHT22;59475;52.464;13.590;2022-08-19T05:26:39;20.19;93.41
71627;DHT22;59475;52.464;13.590;2022-08-19T05:29:06;20.19;93.55
71627;DHT22;59475;52.464;13.590;2022-08-19T05:31:33;20.19;93.20
71627;DHT22;59475;52.464;13.590;2022-08-19T05:33:58;20.19;93.64
71627;DHT22;59475;52.464;13.590;2022-08-19T05:36:25;20.20;93.56
71627;DHT22;59475;52.464;13.590;2022-08-19T05:38:51;20.25;93.79
71627;DHT22;59475;52.464;13.590;2022-08-19T05:41:18;20.32;94.05
71627;DHT22;59475;52.464;13.590;2022-08-19T05:43:44;20.36;93.54
71627;DHT22;59475;52.464;13.590;2022-08-19T05:46:16;20.44;93.48
71627;DHT22;59475;52.464;13.590;2022-08-19T05:48:41;20.53;93.42
71627;DHT22;59475;52.464;13.590;2022-08-19T05:51:07;20.58;92.75
71627;DHT22;59475;52.464;13.590;2022-08-19T05:53:34;20.67;92.86
71627;DHT22;59475;52.464;13.590;2022-08-19T05:56:11;20.77;92.77
71627;DHT22;59475;52.464;13.590;2022-08-19T05:58:37;20.85;92.45
71627;DHT22;59475;52.464;13.590;2022-08-19T06:01:04;20.83;92.41
71627;DHT22;59475;52.464;13.590;2022-08-19T06:03:35;20.87;92.42
71627;DHT22;59475;52.464;13.590;2022-08-19T06:06:03;20.88;92.30
71627;DHT22;59475;52.464;13.590;2022-08-19T06:08:29;20.90;92.53
71627;DHT22;59475;52.464;13.590;2022-08-19T06:10:55;21.01;92.45
71627;DHT22;59475;52.464;13.590;2022-08-19T06:13:20;21.06;92.38
71627;DHT22;59475;52.464;13.590;2022-08-19T06:15:47;21.05;91.63
71627;DHT22;59475;52.464;13.590;2022-08-19T06:18:13;21.05;91.89
71627;DHT22;59475;52.464;13.590;2022-08-19T06:20:40;21.11;92.15
71627;DHT22;59475;52.464;13.590;2022-08-19T06:23:06;21.13;92.14
71627;DHT22;59475;52.464;13.590;2022-08-19T06:25:31;21.28;92.13
71627;DHT22;59475;52.464;13.590;2022-08-19T06:27:57;21.30;91.61
71627;DHT22;59475;52.464;13.590;2022-08-19T06:30:22;21.36;91.67
71627;DHT22;59475;52.464;13.590;2022-08-19T06:32:47;21.49;91.41
71627;DHT22;59475;52.464;13.590;2022-08-19T06:35:13;21.61;91.38
71627;DHT22;59475;52.464;13.590;2022-08-19T06:37:40;21.68;90.59
71627;DHT22;59475;52.464;13.590;2022-08-19T06:40:06;21.71;91.03
71627;DHT22;59475;52.464;13.590;2022-08-19T06:42:34;21.76;90.73
71627;DHT22;59475;52.464;13.590;2022-08-19T06:45:00;21.76;90.15
71627;DHT22;59475;52.464;13.590;2022-08-19T06:47:28;21.83;89.71
71627;DHT22;59475;52.464;13.590;2022-08-19T06:49:55;21.81;90.10
71627;DHT22;59475;52.464;13.590;2022-08-19T06:52:25;21.84;89.91
71627;DHT22;59475;52.464;13.590;2022-08-19T06:54:50;21.78;89.95
71627;DHT22;59475;52.464;13.590;2022-08-19T06:57:15;21.78;89.86
71627;DHT22;59475;52.464;13.590;2022-08-19T06:59:41;21.78;89.84
71627;DHT22;59475;52.464;13.590;2022-08-19T07:02:07;21.80;90.06
71627;DHT22;59475;52.464;13.590;2022-08-19T07:04:34;21.88;89.80
71627;DHT22;59475;52.464;13.590;2022-08-19T07:07:02;21.94;90.05
71627;DHT22;59475;52.464;13.590;2022-08-19T07:09:28;21.95;89.74
71627;DHT22;59475;52.464;13.590;2022-08-19T07:11:54;21.95;89.35
71627;DHT22;59475;52.464;13.590;2022-08-19T07:14:23;21.80;90.09
71627;DHT22;59475;52.464;13.590;2022-08-19T07:16:51;21.76;90.67
71627;DHT22;59475;52.464;13.590;2022-08-19T07:19:18;21.71;90.73
71627;DHT22;59475;52.464;13.590;2022-08-19T07:21:45;21.71;90.77
71627;DHT22;59475;52.464;13.590;2022-08-19T07:24:11;21.78;90.80
71627;DHT22;59475;52.464;13.590;2022-08-19T07:26:40;21.85;90.07
71627;DHT22;59475;52.464;13.590;2022-08-19T07:29:06;21.88;90.39
71627;DHT22;59475;52.464;13.590;2022-08-19T07:31:31;21.95;90.42
71627;DHT22;59475;52.464;13.590;2022-08-19T07:34:04;21.95;89.94
71627;DHT22;59475;52.464;13.590;2022-08-19T07:36:35;22.00;89.87
71627;DHT22;59475;52.464;13.590;2022-08-19T07:39:05;21.97;89.67
71627;DHT22;59475;52.464;13.590;2022-08-19T07:41:31;22.02;90.43
71627;DHT22;59475;52.464;13.590;2022-08-19T07:43:59;22.08;90.02
71627;DHT22;59475;52.464;13.590;2022-08-19T07:46:30;22.16;89.55
71627;DHT22;59475;52.464;13.590;2022-08-19T07:48:56;22.25;90.03
71627;DHT22;59475;52.464;13.590;2022-08-19T07:51:22;22.31;89.36
71627;DHT22;59475;52.464;13.590;2022-08-19T07:53:48;22.38;88.65
71627;DHT22;59475;52.464;13.590;2022-08-19T07:56:16;22.46;89.06
71627;DHT22;59475;52.464;13.590;2022-08-19T07:58:44;22.48;87.99
71627;DHT22;59475;52.464;13.590;2022-08-19T08:01:15;22.50;88.93
71627;DHT22;59475;52.464;13.590;2022-08-19T08:03:41;22.42;88.03
71627;DHT22;59475;52.464;13.590;2022-08-19T08:06:25;22.45;87.31
71627;DHT22;59475;52.464;13.590;2022-08-19T08:09:09;22.49;88.20
71627;DHT22;59475;52.464;13.590;2022-08-19T08:11:45;22.60;87.51
71627;DHT22;59475;52.464;13.590;2022-08-19T08:14:20;22.61;87.41
71627;DHT22;59475;52.464;13.590;2022-08-19T08:16:48;22.73;87.99
71627;DHT22;59475;52.464;13.590;2022-08-19T08:19:18;22.81;88.30
71627;DHT22;59475;52.464;13.590;2022-08-19T08:21:46;22.90;87.91
71627;DHT22;59475;52.464;13.590;2022-08-19T08:24:11;23.11;88.06
71627;DHT22;59475;52.464;13.590;2022-08-19T08:26:37;23.14;85.65
71627;DHT22;59475;52.464;13.590;2022-08-19T08:29:02;23.05;86.17
71627;DHT22;59475;52.464;13.590;2022-08-19T08:31:28;23.10;87.13
71627;DHT22;59475;52.464;13.590;2022-08-19T08:33:53;23.25;85.66
71627;DHT22;59475;52.464;13.590;2022-08-19T08:36:19;23.39;85.34
71627;DHT22;59475;52.464;13.590;2022-08-19T08:38:45;23.56;84.77
71627;DHT22;59475;52.464;13.590;2022-08-19T08:43:58;23.72;85.09
71627;DHT22;59475;52.464;13.590;2022-08-19T08:47:03;23.74;84.47
71627;DHT22;59475;52.464;13.590;2022-08-19T08:52:07;23.77;83.93
71627;DHT22;59475;52.464;13.590;2022-08-19T08:54:41;23.67;83.43
71627;DHT22;59475;52.464;13.590;2022-08-19T08:57:18;23.67;83.35
71627;DHT22;59475;52.464;13.590;2022-08-19T08:59:47;23.67;83.61
71627;DHT22;59475;52.464;13.590;2022-08-19T09:02:16;23.67;82.70
71627;DHT22;59475;52.464;13.590;2022-08-19T09:04:41;23.58;83.05
71627;DHT22;59475;52.464;13.590;2022-08-19T09:07:20;23.65;83.54
71627;DHT22;59475;52.464;13.590;2022-08-19T09:09:52;23.76;84.01
71627;DHT22;59475;52.464;13.590;2022-08-19T09:15:05;23.80;82.50
71627;DHT22;59475;52.464;13.590;2022-08-19T09:17:31;23.94;83.21
71627;DHT22;59475;52.464;13.590;2022-08-19T09:20:06;24.14;82.79
71627;DHT22;59475;52.464;13.590;2022-08-19T09:22:36;24.28;82.46
71627;DHT22;59475;52.464;13.590;2022-08-19T09:25:02;24.07;80.69
71627;DHT22;59475;52.464;13.590;2022-08-19T09:27:29;24.10;81.56
71627;DHT22;59475;52.464;13.590;2022-08-19T09:29:55;24.13;81.37
71627;DHT22;59475;52.464;13.590;2022-08-19T09:32:21;24.13;80.67
71627;DHT22;59475;52.464;13.590;2022-08-19T09:34:47;24.27;80.06
71627;DHT22;59475;52.464;13.590;2022-08-19T09:37:13;24.34;80.18
71627;DHT22;59475;52.464;13.590;2022-08-19T09:39:39;24.16;80.07
71627;DHT22;59475;52.464;13.590;2022-08-19T09:42:06;24.13;80.76
71627;DHT22;59475;52.464;13.590;2022-08-19T09:44:37;23.99;81.44
71627;DHT22;59475;52.464;13.590;2022-08-19T09:47:02;23.79;81.22
71627;DHT22;59475;52.464;13.590;2022-08-19T09:49:28;23.69;81.93
71627;DHT22;59475;52.464;13.590;2022-08-19T09:51:54;23.67;83.11
71627;DHT22;59475;52.464;13.590;2022-08-19T09:54:22;23.74;83.61
71627;DHT22;59475;52.464;13.590;2022-08-19T09:56:47;23.72;82.92
71627;DHT22;59475;52.464;13.590;2022-08-19T09:59:13;23.66;83.05
71627;DHT22;59475;52.464;13.590;2022-08-19T10:01:38;23.73;83.41
71627;DHT22;59475;52.464;13.590;2022-08-19T10:04:04;23.62;83.78
71627;DHT22;59475;52.464;13.590;2022-08-19T10:06:35;23.53;83.38
71627;DHT22;59475;52.464;13.590;2022-08-19T10:09:02;23.55;83.76
71627;DHT22;59475;52.464;13.590;2022-08-19T10:11:29;23.72;83.18
71627;DHT22;59475;52.464;13.590;2022-08-19T10:13:54;23.94;83.20
71627;DHT22;59475;52.464;13.590;2022-08-19T10:16:22;24.16;82.85
71627;DHT22;59475;52.464;13.590;2022-08-19T10:18:49;24.14;81.72
71627;DHT22;59475;52.464;13.590;2022-08-19T10:21:20;24.10;81.44
71627;DHT22;59475;52.464;13.590;2022-08-19T10:23:54;24.06;82.37
71627;DHT22;59475;52.464;13.590;2022-08-19T10:26:26;24.14;81.82
71627;DHT22;59475;52.464;13.590;2022-08-19T10:28:52;24.22;81.24
71627;DHT22;59475;52.464;13.590;2022-08-19T10:31:21;24.21;81.60
71627;DHT22;59475;52.464;13.590;2022-08-19T10:33:48;24.20;81.33
71627;DHT22;59475;52.464;13.590;2022-08-19T10:36:17;24.14;81.82
71627;DHT22;59475;52.464;13.590;2022-08-19T10:38:46;24.17;81.74
71627;DHT22;59475;52.464;13.590;2022-08-19T10:41:15;24.22;81.09
71627;DHT22;59475;52.464;13.590;2022-08-19T10:43:42;24.34;80.73
71627;DHT22;59475;52.464;13.590;2022-08-19T10:46:09;24.45;80.90
71627;DHT22;59475;52.464;13.590;2022-08-19T10:48:35;24.47;79.86
71627;DHT22;59475;52.464;13.590;2022-08-19T10:51:02;24.55;79.19
71627;DHT22;59475;52.464;13.590;2022-08-19T10:53:46;24.59;78.29
71627;DHT22;59475;52.464;13.590;2022-08-19T10:56:12;24.41;79.52
71627;DHT22;59475;52.464;13.590;2022-08-19T10:58:56;24.35;80.29
71627;DHT22;59475;52.464;13.590;2022-08-19T11:01:23;24.49;79.83
71627;DHT22;59475;52.464;13.590;2022-08-19T11:03:48;24.58;79.98
71627;DHT22;59475;52.464;13.590;2022-08-19T11:06:15;24.61;80.31
71627;DHT22;59475;52.464;13.590;2022-08-19T11:08:40;24.49;80.17
71627;DHT22;59475;52.464;13.590;2022-08-19T11:11:07;24.47;80.29
71627;DHT22;59475;52.464;13.590;2022-08-19T11:13:36;24.42;80.72
71627;DHT22;59475;52.464;13.590;2022-08-19T11:16:08;24.28;80.96
71627;DHT22;59475;52.464;13.590;2022-08-19T11:18:36;24.27;81.28
71627;DHT22;59475;52.464;13.590;2022-08-19T11:21:19;24.32;81.37
71627;DHT22;59475;52.464;13.590;2022-08-19T11:23:48;24.51;81.71
71627;DHT22;59475;52.464;13.590;2022-08-19T11:26:14;24.62;80.91
71627;DHT22;59475;52.464;13.590;2022-08-19T11:28:41;24.68;79.65
71627;DHT22;59475;52.464;13.590;2022-08-19T11:31:11;24.69;80.07
71627;DHT22;59475;52.464;13.590;2022-08-19T11:33:38;24.66;80.09
71627;DHT22;59475;52.464;13.590;2022-08-19T11:36:04;24.55;80.70
71627;DHT22;59475;52.464;13.590;2022-08-19T11:38:29;24.41;81.47
71627;DHT22;59475;52.464;13.590;2022-08-19T11:41:00;24.28;81.05
71627;DHT22;59475;52.464;13.590;2022-08-19T11:43:25;24.10;81.67
71627;DHT22;59475;52.464;13.590;2022-08-19T11:45:53;24.07;82.34
71627;DHT22;59475;52.464;13.590;2022-08-19T11:48:18;24.04;81.81
71627;DHT22;59475;52.464;13.590;2022-08-19T11:50:50;24.10;81.77
71627;DHT22;59475;52.464;13.590;2022-08-19T11:53:19;24.11;81.87
71627;DHT22;59475;52.464;13.590;2022-08-19T11:55:46;24.11;81.96
71627;DHT22;59475;52.464;13.590;2022-08-19T11:58:13;24.16;81.47
71627;DHT22;59475;52.464;13.590;2022-08-19T12:00:39;24.13;81.02
71627;DHT22;59475;52.464;13.590;2022-08-19T12:03:05;24.20;81.17
71627;DHT22;59475;52.464;13.590;2022-08-19T12:05:31;24.22;81.01
71627;DHT22;59475;52.464;13.590;2022-08-19T12:07:56;24.35;81.12
71627;DHT22;59475;52.464;13.590;2022-08-19T12:10:22;24.42;80.46
71627;DHT22;59475;52.464;13.590;2022-08-19T12:12:47;24.35;80.50
71627;DHT22;59475;52.464;13.590;2022-08-19T12:15:13;24.29;80.58
71627;DHT22;59475;52.464;13.590;2022-08-19T12:17:40;24.22;80.61
71627;DHT22;59475;52.464;13.590;2022-08-19T12:20:07;24.06;81.25
71627;DHT22;59475;52.464;13.590;2022-08-19T12:22:34;23.94;81.34
71627;DHT22;59475;52.464;13.590;2022-08-19T12:25:00;23.89;81.32
71627;DHT22;59475;52.464;13.590;2022-08-19T12:27:26;23.92;81.27
71627;DHT22;59475;52.464;13.590;2022-08-19T12:29:51;23.82;81.48
71627;DHT22;59475;52.464;13.590;2022-08-19T12:32:16;23.77;81.86
71627;DHT22;59475;52.464;13.590;2022-08-19T12:34:42;23.83;81.66
71627;DHT22;59475;52.464;13.590;2022-08-19T12:37:07;23.96;81.35
71627;DHT22;59475;52.464;13.590;2022-08-19T12:39:41;24.07;81.49
71627;DHT22;59475;52.464;13.590;2022-08-19T12:42:07;24.14;80.63
71627;DHT22;59475;52.464;13.590;2022-08-19T12:44:34;24.08;80.30
71627;DHT22;59475;52.464;13.590;2022-08-19T12:47:00;24.29;80.31
71627;DHT22;59475;52.464;13.590;2022-08-19T12:49:27;24.48;79.42
71627;DHT22;59475;52.464;13.590;2022-08-19T12:51:53;24.75;78.65
71627;DHT22;59475;52.464;13.590;2022-08-19T12:54:18;24.76;78.79
71627;DHT22;59475;52.464;13.590;2022-08-19T12:56:43;24.65;78.40
71627;DHT22;59475;52.464;13.590;2022-08-19T12:59:09;24.73;78.18
71627;DHT22;59475;52.464;13.590;2022-08-19T13:01:36;24.71;77.90
71627;DHT22;59475;52.464;13.590;2022-08-19T13:04:02;24.61;78.64
71627;DHT22;59475;52.464;13.590;2022-08-19T13:06:27;24.87;79.15
71627;DHT22;59475;52.464;13.590;2022-08-19T13:08:54;25.02;77.76
71627;DHT22;59475;52.464;13.590;2022-08-19T13:11:20;25.24;76.23
71627;DHT22;59475;52.464;13.590;2022-08-19T13:13:51;25.44;75.79
71627;DHT22;59475;52.464;13.590;2022-08-19T13:16:18;25.44;75.33
71627;DHT22;59475;52.464;13.590;2022-08-19T13:18:46;25.47;75.42
71627;DHT22;59475;52.464;13.590;2022-08-19T13:21:19;25.31;75.44
71627;DHT22;59475;52.464;13.590;2022-08-19T13:23:48;25.31;76.04
71627;DHT22;59475;52.464;13.590;2022-08-19T13:26:14;25.33;75.35
71627;DHT22;59475;52.464;13.590;2022-08-19T13:28:41;25.28;75.32
71627;DHT22;59475;52.464;13.590;2022-08-19T13:31:26;25.28;75.68
71627;DHT22;59475;52.464;13.590;2022-08-19T13:34:11;25.44;75.61
71627;DHT22;59475;52.464;13.590;2022-08-19T13:36:37;25.44;74.43
71627;DHT22;59475;52.464;13.590;2022-08-19T13:39:04;25.49;74.30
71627;DHT22;59475;52.464;13.590;2022-08-19T13:41:30;25.35;74.61
71627;DHT22;59475;52.464;13.590;2022-08-19T13:43:56;25.26;74.60
71627;DHT22;59475;52.464;13.590;2022-08-19T13:46:21;25.27;75.76
71627;DHT22;59475;52.464;13.590;2022-08-19T13:48:46;25.54;74.92
71627;DHT22;59475;52.464;13.590;2022-08-19T13:51:17;25.58;73.89
71627;DHT22;59475;52.464;13.590;2022-08-19T13:53:43;25.64;74.38
71627;DHT22;59475;52.464;13.590;2022-08-19T13:56:11;25.69;73.81
71627;DHT22;59475;52.464;13.590;2022-08-19T13:58:37;25.74;73.78
71627;DHT22;59475;52.464;13.590;2022-08-19T14:01:03;25.71;73.73
71627;DHT22;59475;52.464;13.590;2022-08-19T14:03:30;25.71;73.04
71627;DHT22;59475;52.464;13.590;2022-08-19T14:05:55;25.61;73.51
71627;DHT22;59475;52.464;13.590;2022-08-19T14:08:21;25.40;75.37
71627;DHT22;59475;52.464;13.590;2022-08-19T14:10:46;25.59;74.33
71627;DHT22;59475;52.464;13.590;2022-08-19T14:13:15;25.64;73.93
71627;DHT22;59475;52.464;13.590;2022-08-19T14:15:41;25.65;73.95
71627;DHT22;59475;52.464;13.590;2022-08-19T14:18:06;25.68;73.02
71627;DHT22;59475;52.464;13.590;2022-08-19T14:20:34;25.47;74.10
71627;DHT22;59475;52.464;13.590;2022-08-19T14:23:00;25.24;74.27
71627;DHT22;59475;52.464;13.590;2022-08-19T14:25:29;25.30;75.14
71627;DHT22;59475;52.464;13.590;2022-08-19T14:27:55;25.28;74.25
71627;DHT22;59475;52.464;13.590;2022-08-19T14:30:30;25.14;75.03
71627;DHT22;59475;52.464;13.590;2022-08-19T14:32:56;24.93;74.74
71627;DHT22;59475;52.464;13.590;2022-08-19T14:35:23;24.82;75.64
71627;DHT22;59475;52.464;13.590;2022-08-19T14:37:49;24.75;76.26
71627;DHT22;59475;52.464;13.590;2022-08-19T14:40:17;24.68;76.10
71627;DHT22;59475;52.464;13.590;2022-08-19T14:42:43;24.71;76.10
71627;DHT22;59475;52.464;13.590;2022-08-19T14:45:10;24.65;76.32
71627;DHT22;59475;52.464;13.590;2022-08-19T14:47:36;24.64;75.88
71627;DHT22;59475;52.464;13.590;2022-08-19T14:50:05;24.58;76.61
71627;DHT22;59475;52.464;13.590;2022-08-19T14:52:31;24.56;76.74
71627;DHT22;59475;52.464;13.590;2022-08-19T14:54:57;24.58;76.89
71627;DHT22;59475;52.464;13.590;2022-08-19T14:57:22;24.54;76.97
71627;DHT22;59475;52.464;13.590;2022-08-19T14:59:48;24.48;76.81
71627;DHT22;59475;52.464;13.590;2022-08-19T15:02:13;24.47;77.22
71627;DHT22;59475;52.464;13.590;2022-08-19T15:04:39;24.52;77.30
71627;DHT22;59475;52.464;13.590;2022-08-19T15:07:04;24.58;77.10
71627;DHT22;59475;52.464;13.590;2022-08-19T15:09:33;24.61;76.98
71627;DHT22;59475;52.464;13.590;2022-08-19T15:11:59;24.64;76.93
71627;DHT22;59475;52.464;13.590;2022-08-19T15:14:27;24.59;76.95
71627;DHT22;59475;52.464;13.590;2022-08-19T15:16:53;24.62;76.70
71627;DHT22;59475;52.464;13.590;2022-08-19T15:19:18;24.58;76.70
71627;DHT22;59475;52.464;13.590;2022-08-19T15:21:44;24.56;76.98
71627;DHT22;59475;52.464;13.590;2022-08-19T15:24:09;24.54;76.44
71627;DHT22;59475;52.464;13.590;2022-08-19T15:26:34;24.49;76.62
71627;DHT22;59475;52.464;13.590;2022-08-19T15:29:01;24.45;76.73